sensor_id;sensor_type;location;lat;lon;timestamp;temperature;humidity
21823;DHT22;11074;48.596;9.238;2023-08-21T00:01:37;23.00;99.90
21823;DHT22;11074;48.596;9.238;2023-08-21T00:04:02;23.00;99.90
21823;DHT22;11074;48.596;9.238;2023-08-21T00:06:28;22.90;99.90
21823;DHT22;11074;48.596;9.238;2023-08-21T00:08:54;22.90;99.90
21823;DHT22;11074;48.596;9.238;2023-08-21T00:11:20;22.80;99.90
21823;DHT22;11074;48.596;9.238;2023-08-21T00:13:45;22.70;99.90
21823;DHT22;11074;48.596;9.238;2023-08-21T00:16:13;22.70;99.90
21823;DHT22;11074;48.596;9.238;2023-08-21T00:18:39;22.80;99.90
21823;DHT22;11074;48.596;9.238;2023-08-21T00:21:05;22.80;99.90
21823;DHT22;11074;48.596;9.238;2023-08-21T00:23:31;22.60;99.90
21823;DHT22;11074;48.596;9.238;2023-08-21T00:25:57;22.70;99.90
21823;DHT22;11074;48.596;9.238;2023-08-21T00:28:23;22.80;99.90
21823;DHT22;11074;48.596;9.238;2023-08-21T00:30:48;22.80;99.90
21823;DHT22;11074;48.596;9.238;2023-08-21T00:33:14;22.70;99.90
21823;DHT22;11074;48.596;9.238;2023-08-21T00:35:40;22.70;99.90
21823;DHT22;11074;48.596;9.238;2023-08-21T00:38:06;22.70;99.90
21823;DHT22;11074;48.596;9.238;2023-08-21T00:40:32;22.60;99.90
21823;DHT22;11074;48.596;9.238;2023-08-21T00:42:58;22.60;99.90
21823;DHT22;11074;48.596;9.238;2023-08-21T00:45:24;22.50;99.90
21823;DHT22;11074;48.596;9.238;2023-08-21T00:47:50;22.60;99.90
21823;DHT22;11074;48.596;9.238;2023-08-21T00:50:16;22.60;99.90
21823;DHT22;11074;48.596;9.238;2023-08-21T00:52:44;22.70;99.90
21823;DHT22;11074;48.596;9.238;2023-08-21T00:55:12;22.70;99.90
21823;DHT22;11074;48.596;9.238;2023-08-21T00:57:39;22.70;99.90
21823;DHT22;11074;48.596;9.238;2023-08-21T01:00:05;22.60;99.90
21823;DHT22;11074;48.596;9.238;2023-08-21T01:02:35;22.70;99.90
21823;DHT22;11074;48.596;9.238;2023-08-21T01:05:01;22.80;99.90
21823;DHT22;11074;48.596;9.238;2023-08-21T01:07:27;22.70;99.90
21823;DHT22;11074;48.596;9.238;2023-08-21T01:10:42;22.60;99.90
21823;DHT22;11074;48.596;9.238;2023-08-21T01:15:55;22.50;99.90
21823;DHT22;11074;48.596;9.238;2023-08-21T01:18:22;22.50;99.90
21823;DHT22;11074;48.596;9.238;2023-08-21T01:20:52;22.40;99.90
21823;DHT22;11074;48.596;9.238;2023-08-21T01:23:37;22.30;99.90
21823;DHT22;11074;48.596;9.238;2023-08-21T01:26:04;22.30;99.90
21823;DHT22;11074;48.596;9.238;2023-08-21T01:28:33;22.20;99.90
21823;DHT22;11074;48.596;9.238;2023-08-21T01:31:09;22.10;99.90
21823;DHT22;11074;48.596;9.238;2023-08-21T01:33:57;21.90;99.90
21823;DHT22;11074;48.596;9.238;2023-08-21T01:36:27;21.90;99.90
21823;DHT22;11074;48.596;9.238;2023-08-21T01:38:54;22.00;99.90
21823;DHT22;11074;48.596;9.238;2023-08-21T01:41:23;22.00;99.90
21823;DHT22;11074;48.596;9.238;2023-08-21T01:43:50;22.00;99.90
21823;DHT22;11074;48.596;9.238;2023-08-21T01:46:15;22.10;99.90
21823;DHT22;11074;48.596;9.238;2023-08-21T01:48:41;22.10;99.90
21823;DHT22;11074;48.596;9.238;2023-08-21T01:51:07;22.00;99.90
21823;DHT22;11074;48.596;9.238;2023-08-21T01:53:33;22.10;99.90
21823;DHT22;11074;48.596;9.238;2023-08-21T01:55:59;22.10;99.90
21823;DHT22;11074;48.596;9.238;2023-08-21T01:58:24;22.00;99.90
21823;DHT22;11074;48.596;9.238;2023-08-21T02:00:50;21.90;99.90
21823;DHT22;11074;48.596;9.238;2023-08-21T02:03:16;21.70;99.90
21823;DHT22;11074;48.596;9.238;2023-08-21T02:05:42;21.70;99.90
21823;DHT22;11074;48.596;9.238;2023-08-21T02:08:12;21.70;99.90
21823;DHT22;11074;48.596;9.238;2023-08-21T02:10:48;21.80;99.90
21823;DHT22;11074;48.596;9.238;2023-08-21T02:13:18;21.70;99.90
21823;DHT22;11074;48.596;9.238;2023-08-21T02:15:44;21.80;99.90
21823;DHT22;11074;48.596;9.238;2023-08-21T02:18:10;21.80;99.90
21823;DHT22;11074;48.596;9.238;2023-08-21T02:20:36;21.80;99.90
21823;DHT22;11074;48.596;9.238;2023-08-21T02:23:01;21.80;99.90
21823;DHT22;11074;48.596;9.238;2023-08-21T02:25:27;21.70;99.90
21823;DHT22;11074;48.596;9.238;2023-08-21T02:27:55;21.60;99.90
21823;DHT22;11074;48.596;9.238;2023-08-21T02:30:21;21.70;99.90
21823;DHT22;11074;48.596;9.238;2023-08-21T02:32:53;21.80;99.90
21823;DHT22;11074;48.596;9.238;2023-08-21T02:35:22;21.80;99.90
21823;DHT22;11074;48.596;9.238;2023-08-21T02:37:48;21.80;99.90
21823;DHT22;11074;48.596;9.238;2023-08-21T02:40:14;21.80;99.90
21823;DHT22;11074;48.596;9.238;2023-08-21T02:42:39;21.80;99.90
21823;DHT22;11074;48.596;9.238;2023-08-21T02:45:05;21.80;99.90
21823;DHT22;11074;48.596;9.238;2023-08-21T02:47:38;21.70;99.90
21823;DHT22;11074;48.596;9.238;2023-08-21T02:50:06;21.70;99.90
21823;DHT22;11074;48.596;9.238;2023-08-21T02:52:33;21.60;99.90
21823;DHT22;11074;48.596;9.238;2023-08-21T02:55:00;21.60;99.90
21823;DHT22;11074;48.596;9.238;2023-08-21T02:57:26;21.60;99.90
21823;DHT22;11074;48.596;9.238;2023-08-21T02:59:53;21.60;99.90
21823;DHT22;11074;48.596;9.238;2023-08-21T03:02:19;21.60;99.90
21823;DHT22;11074;48.596;9.238;2023-08-21T03:04:46;21.70;99.90
21823;DHT22;11074;48.596;9.238;2023-08-21T03:07:12;21.70;99.90
21823;DHT22;11074;48.596;9.238;2023-08-21T03:09:39;21.60;99.90
21823;DHT22;11074;48.596;9.238;2023-08-21T03:12:06;21.60;99.90
21823;DHT22;11074;48.596;9.238;2023-08-21T03:14:32;21.60;99.90
21823;DHT22;11074;48.596;9.238;2023-08-21T03:16:58;21.60;99.90
21823;DHT22;11074;48.596;9.238;2023-08-21T03:19:24;21.50;99.90
21823;DHT22;11074;48.596;9.238;2023-08-21T03:21:49;21.50;99.90
21823;DHT22;11074;48.596;9.238;2023-08-21T03:24:15;21.50;99.90
21823;DHT22;11074;48.596;9.238;2023-08-21T03:26:41;21.50;99.90
21823;DHT22;11074;48.596;9.238;2023-08-21T03:29:06;21.40;99.90
21823;DHT22;11074;48.596;9.238;2023-08-21T03:31:32;21.30;99.90
21823;DHT22;11074;48.596;9.238;2023-08-21T03:33:58;21.40;99.90
21823;DHT22;11074;48.596;9.238;2023-08-21T03:36:24;21.40;99.90
21823;DHT22;11074;48.596;9.238;2023-08-21T03:38:59;21.50;99.90
21823;DHT22;11074;48.596;9.238;2023-08-21T03:41:26;21.40;99.90
21823;DHT22;11074;48.596;9.238;2023-08-21T03:43:52;21.60;99.90
21823;DHT22;11074;48.596;9.238;2023-08-21T03:46:18;21.50;99.90
21823;DHT22;11074;48.596;9.238;2023-08-21T03:48:44;21.50;99.90
21823;DHT22;11074;48.596;9.238;2023-08-21T03:51:10;21.40;99.90
21823;DHT22;11074;48.596;9.238;2023-08-21T03:53:35;21.40;99.90
21823;DHT22;11074;48.596;9.238;2023-08-21T03:56:01;21.50;99.90
21823;DHT22;11074;48.596;9.238;2023-08-21T03:58:27;21.40;99.90
21823;DHT22;11074;48.596;9.238;2023-08-21T04:00:53;21.40;99.90
21823;DHT22;11074;48.596;9.238;2023-08-21T04:03:19;21.20;99.90
21823;DHT22;11074;48.596;9.238;2023-08-21T04:05:45;21.10;99.90
21823;DHT22;11074;48.596;9.238;2023-08-21T04:08:11;21.10;99.90
21823;DHT22;11074;48.596;9.238;2023-08-21T04:10:37;21.20;99.90
21823;DHT22;11074;48.596;9.238;2023-08-21T04:13:04;21.10;99.90
21823;DHT22;11074;48.596;9.238;2023-08-21T04:15:31;21.10;99.90
21823;DHT22;11074;48.596;9.238;2023-08-21T04:18:00;21.10;99.90
21823;DHT22;11074;48.596;9.238;2023-08-21T04:20:26;21.10;99.90
21823;DHT22;11074;48.596;9.238;2023-08-21T04:22:51;21.20;99.90
21823;DHT22;11074;48.596;9.238;2023-08-21T04:25:17;21.10;99.90
21823;DHT22;11074;48.596;9.238;2023-08-21T04:27:43;21.10;99.90
21823;DHT22;11074;48.596;9.238;2023-08-21T04:30:10;21.10;99.90
21823;DHT22;11074;48.596;9.238;2023-08-21T04:32:36;21.20;99.90
21823;DHT22;11074;48.596;9.238;2023-08-21T04:35:02;21.20;99.90
21823;DHT22;11074;48.596;9.238;2023-08-21T04:37:27;21.10;99.90
21823;DHT22;11074;48.596;9.238;2023-08-21T04:39:54;21.10;99.90
21823;DHT22;11074;48.596;9.238;2023-08-21T04:42:20;21.00;99.90
21823;DHT22;11074;48.596;9.238;2023-08-21T04:44:55;21.00;99.90
21823;DHT22;11074;48.596;9.238;2023-08-21T04:47:25;20.90;99.90
21823;DHT22;11074;48.596;9.238;2023-08-21T04:49:52;20.90;99.90
21823;DHT22;11074;48.596;9.238;2023-08-21T04:52:23;20.80;99.90
21823;DHT22;11074;48.596;9.238;2023-08-21T04:54:50;20.70;99.90
21823;DHT22;11074;48.596;9.238;2023-08-21T04:57:17;20.80;99.90
21823;DHT22;11074;48.596;9.238;2023-08-21T04:59:43;20.80;99.90
21823;DHT22;11074;48.596;9.238;2023-08-21T05:02:10;20.90;99.90
21823;DHT22;11074;48.596;9.238;2023-08-21T05:04:36;20.90;99.90
21823;DHT22;11074;48.596;9.238;2023-08-21T05:07:03;20.90;99.90
21823;DHT22;11074;48.596;9.238;2023-08-21T05:09:30;20.90;99.90
21823;DHT22;11074;48.596;9.238;2023-08-21T05:11:56;20.90;99.90
21823;DHT22;11074;48.596;9.238;2023-08-21T05:14:22;20.90;99.90
21823;DHT22;11074;48.596;9.238;2023-08-21T05:16:51;21.00;99.90
21823;DHT22;11074;48.596;9.238;2023-08-21T05:19:17;21.10;99.90
21823;DHT22;11074;48.596;9.238;2023-08-21T05:21:44;21.10;99.90
21823;DHT22;11074;48.596;9.238;2023-08-21T05:24:10;21.20;99.90
21823;DHT22;11074;48.596;9.238;2023-08-21T05:26:36;21.40;99.90
21823;DHT22;11074;48.596;9.238;2023-08-21T05:29:03;21.40;99.90
21823;DHT22;11074;48.596;9.238;2023-08-21T05:31:28;21.40;99.90
21823;DHT22;11074;48.596;9.238;2023-08-21T05:33:55;21.40;99.90
21823;DHT22;11074;48.596;9.238;2023-08-21T05:36:20;21.50;99.90
21823;DHT22;11074;48.596;9.238;2023-08-21T05:38:46;21.50;99.90
21823;DHT22;11074;48.596;9.238;2023-08-21T05:41:17;21.50;99.90
21823;DHT22;11074;48.596;9.238;2023-08-21T05:43:43;21.50;99.90
21823;DHT22;11074;48.596;9.238;2023-08-21T05:46:11;21.50;99.90
21823;DHT22;11074;48.596;9.238;2023-08-21T05:48:36;21.60;99.90
21823;DHT22;11074;48.596;9.238;2023-08-21T05:51:02;21.70;99.90
21823;DHT22;11074;48.596;9.238;2023-08-21T05:53:28;21.80;99.90
21823;DHT22;11074;48.596;9.238;2023-08-21T05:55:59;21.80;99.90
21823;DHT22;11074;48.596;9.238;2023-08-21T05:58:25;21.80;99.90
21823;DHT22;11074;48.596;9.238;2023-08-21T06:00:55;21.90;99.90
21823;DHT22;11074;48.596;9.238;2023-08-21T06:03:21;21.90;99.90
21823;DHT22;11074;48.596;9.238;2023-08-21T06:05:47;21.90;99.90
21823;DHT22;11074;48.596;9.238;2023-08-21T06:08:13;22.10;99.90
21823;DHT22;11074;48.596;9.238;2023-08-21T06:10:39;22.00;99.90
21823;DHT22;11074;48.596;9.238;2023-08-21T06:13:05;22.10;99.90
21823;DHT22;11074;48.596;9.238;2023-08-21T06:15:30;22.10;99.90
21823;DHT22;11074;48.596;9.238;2023-08-21T06:17:57;22.10;99.90
21823;DHT22;11074;48.596;9.238;2023-08-21T06:20:23;22.20;99.90
21823;DHT22;11074;48.596;9.238;2023-08-21T06:22:49;22.40;99.90
21823;DHT22;11074;48.596;9.238;2023-08-21T06:25:15;22.50;99.90
21823;DHT22;11074;48.596;9.238;2023-08-21T06:27:40;22.50;99.90
21823;DHT22;11074;48.596;9.238;2023-08-21T06:30:07;22.60;99.90
21823;DHT22;11074;48.596;9.238;2023-08-21T06:32:33;22.70;99.90
21823;DHT22;11074;48.596;9.238;2023-08-21T06:35:01;22.70;99.90
21823;DHT22;11074;48.596;9.238;2023-08-21T06:37:26;22.80;99.90
21823;DHT22;11074;48.596;9.238;2023-08-21T06:39:52;22.80;99.90
21823;DHT22;11074;48.596;9.238;2023-08-21T06:42:18;22.90;99.90
21823;DHT22;11074;48.596;9.238;2023-08-21T06:44:44;22.90;99.90
21823;DHT22;11074;48.596;9.238;2023-08-21T06:47:09;22.90;99.90
21823;DHT22;11074;48.596;9.238;2023-08-21T06:49:35;22.90;99.90
21823;DHT22;11074;48.596;9.238;2023-08-21T06:52:01;23.00;99.90
21823;DHT22;11074;48.596;9.238;2023-08-21T06:54:29;23.10;99.90
21823;DHT22;11074;48.596;9.238;2023-08-21T06:56:54;23.20;99.90
21823;DHT22;11074;48.596;9.238;2023-08-21T06:59:20;23.20;99.90
21823;DHT22;11074;48.596;9.238;2023-08-21T07:01:46;23.20;99.90
21823;DHT22;11074;48.596;9.238;2023-08-21T07:04:11;23.30;99.90
21823;DHT22;11074;48.596;9.238;2023-08-21T07:06:37;23.30;99.90
21823;DHT22;11074;48.596;9.238;2023-08-21T07:09:03;23.30;99.90
21823;DHT22;11074;48.596;9.238;2023-08-21T07:11:29;23.40;99.90
21823;DHT22;11074;48.596;9.238;2023-08-21T07:13:55;23.40;99.90
21823;DHT22;11074;48.596;9.238;2023-08-21T07:16:20;23.30;99.90
21823;DHT22;11074;48.596;9.238;2023-08-21T07:18:46;23.40;99.90
21823;DHT22;11074;48.596;9.238;2023-08-21T07:21:12;23.40;99.90
21823;DHT22;11074;48.596;9.238;2023-08-21T07:23:38;23.40;99.90
21823;DHT22;11074;48.596;9.238;2023-08-21T07:26:03;23.40;99.90
21823;DHT22;11074;48.596;9.238;2023-08-21T07:28:32;23.50;99.90
21823;DHT22;11074;48.596;9.238;2023-08-21T07:30:58;23.50;99.90
21823;DHT22;11074;48.596;9.238;2023-08-21T07:33:27;23.60;99.90
21823;DHT22;11074;48.596;9.238;2023-08-21T07:36:04;23.70;99.90
21823;DHT22;11074;48.596;9.238;2023-08-21T07:38:31;23.70;99.90
21823;DHT22;11074;48.596;9.238;2023-08-21T07:41:08;23.80;99.90
21823;DHT22;11074;48.596;9.238;2023-08-21T07:43:36;23.90;99.90
21823;DHT22;11074;48.596;9.238;2023-08-21T07:46:07;23.90;99.90
21823;DHT22;11074;48.596;9.238;2023-08-21T07:48:37;24.00;99.90
21823;DHT22;11074;48.596;9.238;2023-08-21T07:51:03;24.00;99.90
21823;DHT22;11074;48.596;9.238;2023-08-21T07:53:29;24.00;99.90
21823;DHT22;11074;48.596;9.238;2023-08-21T07:55:56;24.10;99.90
21823;DHT22;11074;48.596;9.238;2023-08-21T07:58:23;24.20;99.90
21823;DHT22;11074;48.596;9.238;2023-08-21T08:00:49;24.20;99.90
21823;DHT22;11074;48.596;9.238;2023-08-21T08:03:15;24.30;99.90
21823;DHT22;11074;48.596;9.238;2023-08-21T08:05:41;24.30;99.90
21823;DHT22;11074;48.596;9.238;2023-08-21T08:08:08;24.40;99.90
21823;DHT22;11074;48.596;9.238;2023-08-21T08:10:40;24.50;99.90
21823;DHT22;11074;48.596;9.238;2023-08-21T08:13:07;24.50;99.90
21823;DHT22;11074;48.596;9.238;2023-08-21T08:15:33;24.50;99.90
21823;DHT22;11074;48.596;9.238;2023-08-21T08:18:01;24.60;99.90
21823;DHT22;11074;48.596;9.238;2023-08-21T08:20:27;24.70;99.90
21823;DHT22;11074;48.596;9.238;2023-08-21T08:22:53;24.70;99.90
21823;DHT22;11074;48.596;9.238;2023-08-21T08:25:18;24.70;99.90
21823;DHT22;11074;48.596;9.238;2023-08-21T08:27:44;24.70;99.90
21823;DHT22;11074;48.596;9.238;2023-08-21T08:30:10;24.80;99.90
21823;DHT22;11074;48.596;9.238;2023-08-21T08:32:36;24.90;99.90
21823;DHT22;11074;48.596;9.238;2023-08-21T08:35:02;25.00;99.90
21823;DHT22;11074;48.596;9.238;2023-08-21T08:37:28;25.10;99.90
21823;DHT22;11074;48.596;9.238;2023-08-21T08:39:54;25.10;99.90
21823;DHT22;11074;48.596;9.238;2023-08-21T08:42:20;25.20;99.90
21823;DHT22;11074;48.596;9.238;2023-08-21T08:44:46;25.30;99.90
21823;DHT22;11074;48.596;9.238;2023-08-21T08:47:13;25.30;99.90
21823;DHT22;11074;48.596;9.238;2023-08-21T08:49:40;25.40;99.90
21823;DHT22;11074;48.596;9.238;2023-08-21T08:52:06;25.50;99.90
21823;DHT22;11074;48.596;9.238;2023-08-21T08:54:32;25.40;99.90
21823;DHT22;11074;48.596;9.238;2023-08-21T08:57:01;25.60;99.90
21823;DHT22;11074;48.596;9.238;2023-08-21T08:59:30;25.60;99.90
21823;DHT22;11074;48.596;9.238;2023-08-21T09:01:56;25.60;99.90
21823;DHT22;11074;48.596;9.238;2023-08-21T09:04:22;25.70;99.90
21823;DHT22;11074;48.596;9.238;2023-08-21T09:06:48;25.70;99.90
21823;DHT22;11074;48.596;9.238;2023-08-21T09:09:14;25.70;99.90
21823;DHT22;11074;48.596;9.238;2023-08-21T09:11:43;25.70;99.90
21823;DHT22;11074;48.596;9.238;2023-08-21T09:14:11;25.80;99.90
21823;DHT22;11074;48.596;9.238;2023-08-21T09:16:37;25.90;99.90
21823;DHT22;11074;48.596;9.238;2023-08-21T09:19:02;26.00;99.90
21823;DHT22;11074;48.596;9.238;2023-08-21T09:21:29;26.00;99.90
21823;DHT22;11074;48.596;9.238;2023-08-21T09:24:00;26.10;99.90
21823;DHT22;11074;48.596;9.238;2023-08-21T09:26:31;26.20;99.90
21823;DHT22;11074;48.596;9.238;2023-08-21T09:29:03;26.20;99.90
21823;DHT22;11074;48.596;9.238;2023-08-21T09:31:33;26.10;99.90
21823;DHT22;11074;48.596;9.238;2023-08-21T09:34:04;26.10;99.90
21823;DHT22;11074;48.596;9.238;2023-08-21T09:36:33;26.20;99.90
21823;DHT22;11074;48.596;9.238;2023-08-21T09:39:00;26.20;99.90
21823;DHT22;11074;48.596;9.238;2023-08-21T09:41:26;26.30;99.90
21823;DHT22;11074;48.596;9.238;2023-08-21T09:43:52;26.40;99.90
21823;DHT22;11074;48.596;9.238;2023-08-21T09:46:24;26.40;99.90
21823;DHT22;11074;48.596;9.238;2023-08-21T09:48:54;26.40;99.90
21823;DHT22;11074;48.596;9.238;2023-08-21T09:51:21;26.30;99.90
21823;DHT22;11074;48.596;9.238;2023-08-21T09:53:50;26.40;99.90
21823;DHT22;11074;48.596;9.238;2023-08-21T09:56:18;26.50;99.90
21823;DHT22;11074;48.596;9.238;2023-08-21T09:58:44;26.60;99.90
21823;DHT22;11074;48.596;9.238;2023-08-21T10:01:14;26.70;99.90
21823;DHT22;11074;48.596;9.238;2023-08-21T10:03:42;26.80;99.90
21823;DHT22;11074;48.596;9.238;2023-08-21T10:06:16;26.80;99.90
21823;DHT22;11074;48.596;9.238;2023-08-21T10:08:47;26.80;99.90
21823;DHT22;11074;48.596;9.238;2023-08-21T10:11:17;26.80;99.90
21823;DHT22;11074;48.596;9.238;2023-08-21T10:13:45;26.90;99.90
21823;DHT22;11074;48.596;9.238;2023-08-21T10:16:12;27.00;99.90
21823;DHT22;11074;48.596;9.238;2023-08-21T10:18:44;27.00;99.90
21823;DHT22;11074;48.596;9.238;2023-08-21T10:21:15;27.20;99.90
21823;DHT22;11074;48.596;9.238;2023-08-21T10:23:42;27.30;99.90
21823;DHT22;11074;48.596;9.238;2023-08-21T10:26:12;27.30;99.90
21823;DHT22;11074;48.596;9.238;2023-08-21T10:33:51;27.40;99.90
21823;DHT22;11074;48.596;9.238;2023-08-21T10:39:23;27.60;99.90
21823;DHT22;11074;48.596;9.238;2023-08-21T10:42:08;27.70;99.90
21823;DHT22;11074;48.596;9.238;2023-08-21T10:49:57;27.80;99.90
21823;DHT22;11074;48.596;9.238;2023-08-21T10:52:29;27.90;99.90
21823;DHT22;11074;48.596;9.238;2023-08-21T10:54:57;27.80;99.90
21823;DHT22;11074;48.596;9.238;2023-08-21T10:57:26;27.90;99.90
21823;DHT22;11074;48.596;9.238;2023-08-21T11:02:28;28.00;99.90
21823;DHT22;11074;48.596;9.238;2023-08-21T11:04:54;27.90;99.90
21823;DHT22;11074;48.596;9.238;2023-08-21T11:07:20;28.10;99.90
21823;DHT22;11074;48.596;9.238;2023-08-21T11:09:50;28.10;99.90
21823;DHT22;11074;48.596;9.238;2023-08-21T11:12:18;28.20;99.90
21823;DHT22;11074;48.596;9.238;2023-08-21T11:14:48;28.30;99.90
21823;DHT22;11074;48.596;9.238;2023-08-21T11:17:15;28.30;99.90
21823;DHT22;11074;48.596;9.238;2023-08-21T11:19:41;28.40;99.90
21823;DHT22;11074;48.596;9.238;2023-08-21T11:22:08;28.50;99.90
21823;DHT22;11074;48.596;9.238;2023-08-21T11:27:07;28.70;99.90
21823;DHT22;11074;48.596;9.238;2023-08-21T11:29:41;28.70;99.90
21823;DHT22;11074;48.596;9.238;2023-08-21T11:32:10;28.70;99.90
21823;DHT22;11074;48.596;9.238;2023-08-21T11:34:36;28.90;99.90
21823;DHT22;11074;48.596;9.238;2023-08-21T11:37:04;29.10;99.90
21823;DHT22;11074;48.596;9.238;2023-08-21T11:39:48;29.20;99.90
21823;DHT22;11074;48.596;9.238;2023-08-21T11:42:15;29.30;99.90
21823;DHT22;11074;48.596;9.238;2023-08-21T11:47:16;29.60;99.90
21823;DHT22;11074;48.596;9.238;2023-08-21T11:49:45;29.70;99.90
21823;DHT22;11074;48.596;9.238;2023-08-21T11:52:18;29.90;99.90
21823;DHT22;11074;48.596;9.238;2023-08-21T11:54:48;30.10;99.90
21823;DHT22;11074;48.596;9.238;2023-08-21T11:57:15;30.30;99.90
21823;DHT22;11074;48.596;9.238;2023-08-21T11:59:41;30.30;99.90
21823;DHT22;11074;48.596;9.238;2023-08-21T12:02:19;30.40;99.90
21823;DHT22;11074;48.596;9.238;2023-08-21T12:04:53;30.50;99.90
21823;DHT22;11074;48.596;9.238;2023-08-21T12:07:32;30.40;99.90
21823;DHT22;11074;48.596;9.238;2023-08-21T12:09:59;30.50;99.90
21823;DHT22;11074;48.596;9.238;2023-08-21T12:12:25;30.60;99.90
21823;DHT22;11074;48.596;9.238;2023-08-21T12:14:50;30.50;99.90
21823;DHT22;11074;48.596;9.238;2023-08-21T12:17:16;30.60;99.90
21823;DHT22;11074;48.596;9.238;2023-08-21T12:19:42;30.70;99.90
21823;DHT22;11074;48.596;9.238;2023-08-21T12:22:08;30.70;99.90
21823;DHT22;11074;48.596;9.238;2023-08-21T12:24:35;30.80;99.90
21823;DHT22;11074;48.596;9.238;2023-08-21T12:27:03;30.90;99.90
21823;DHT22;11074;48.596;9.238;2023-08-21T12:29:29;31.00;99.90
21823;DHT22;11074;48.596;9.238;2023-08-21T12:31:55;31.10;99.90
21823;DHT22;11074;48.596;9.238;2023-08-21T12:34:21;31.30;99.90
21823;DHT22;11074;48.596;9.238;2023-08-21T12:36:50;31.30;99.90
21823;DHT22;11074;48.596;9.238;2023-08-21T12:39:16;31.30;99.90
21823;DHT22;11074;48.596;9.238;2023-08-21T12:41:42;31.40;99.90
21823;DHT22;11074;48.596;9.238;2023-08-21T12:44:08;31.40;99.90
21823;DHT22;11074;48.596;9.238;2023-08-21T12:46:35;31.40;99.90
21823;DHT22;11074;48.596;9.238;2023-08-21T12:49:01;31.50;99.90
21823;DHT22;11074;48.596;9.238;2023-08-21T12:51:28;31.60;99.90
21823;DHT22;11074;48.596;9.238;2023-08-21T12:53:54;31.60;99.90
21823;DHT22;11074;48.596;9.238;2023-08-21T12:56:20;31.60;99.90
21823;DHT22;11074;48.596;9.238;2023-08-21T12:58:46;31.50;99.90
21823;DHT22;11074;48.596;9.238;2023-08-21T13:01:12;31.50;99.90
21823;DHT22;11074;48.596;9.238;2023-08-21T13:03:38;31.60;99.90
21823;DHT22;11074;48.596;9.238;2023-08-21T13:06:04;31.70;99.90
21823;DHT22;11074;48.596;9.238;2023-08-21T13:08:31;31.70;99.90
21823;DHT22;11074;48.596;9.238;2023-08-21T13:10:56;31.60;99.90
21823;DHT22;11074;48.596;9.238;2023-08-21T13:13:22;31.70;99.90
21823;DHT22;11074;48.596;9.238;2023-08-21T13:15:48;31.70;99.90
21823;DHT22;11074;48.596;9.238;2023-08-21T13:18:13;31.70;99.90
21823;DHT22;11074;48.596;9.238;2023-08-21T13:20:41;31.60;99.90
21823;DHT22;11074;48.596;9.238;2023-08-21T13:23:07;31.70;99.90
21823;DHT22;11074;48.596;9.238;2023-08-21T13:25:34;31.80;99.90
21823;DHT22;11074;48.596;9.238;2023-08-21T13:28:01;32.00;99.90
21823;DHT22;11074;48.596;9.238;2023-08-21T13:30:29;32.00;99.90
21823;DHT22;11074;48.596;9.238;2023-08-21T13:32:55;32.00;99.90
21823;DHT22;11074;48.596;9.238;2023-08-21T13:35:21;31.90;99.90
21823;DHT22;11074;48.596;9.238;2023-08-21T13:37:48;32.00;99.90
21823;DHT22;11074;48.596;9.238;2023-08-21T13:40:15;32.00;99.90
21823;DHT22;11074;48.596;9.238;2023-08-21T13:42:43;32.00;99.90
21823;DHT22;11074;48.596;9.238;2023-08-21T13:45:10;32.10;99.90
21823;DHT22;11074;48.596;9.238;2023-08-21T13:47:39;32.00;99.90
21823;DHT22;11074;48.596;9.238;2023-08-21T13:50:07;32.00;99.90
21823;DHT22;11074;48.596;9.238;2023-08-21T13:52:34;32.00;99.90
21823;DHT22;11074;48.596;9.238;2023-08-21T13:55:00;32.20;99.90
21823;DHT22;11074;48.596;9.238;2023-08-21T13:57:26;32.30;99.90
21823;DHT22;11074;48.596;9.238;2023-08-21T13:59:52;32.40;99.90
21823;DHT22;11074;48.596;9.238;2023-08-21T14:02:18;32.40;99.90
21823;DHT22;11074;48.596;9.238;2023-08-21T14:04:45;32.40;99.90
21823;DHT22;11074;48.596;9.238;2023-08-21T14:07:11;32.40;99.90
21823;DHT22;11074;48.596;9.238;2023-08-21T14:09:38;32.20;99.90
21823;DHT22;11074;48.596;9.238;2023-08-21T14:12:04;32.10;99.90
21823;DHT22;11074;48.596;9.238;2023-08-21T14:14:32;32.20;99.90
21823;DHT22;11074;48.596;9.238;2023-08-21T14:16:59;32.20;99.90
21823;DHT22;11074;48.596;9.238;2023-08-21T14:19:24;31.80;99.90
21823;DHT22;11074;48.596;9.238;2023-08-21T14:21:50;31.60;99.90
21823;DHT22;11074;48.596;9.238;2023-08-21T14:24:16;31.60;99.90
21823;DHT22;11074;48.596;9.238;2023-08-21T14:26:42;31.60;99.90
21823;DHT22;11074;48.596;9.238;2023-08-21T14:29:08;31.60;99.90
21823;DHT22;11074;48.596;9.238;2023-08-21T14:31:34;31.40;99.90
21823;DHT22;11074;48.596;9.238;2023-08-21T14:33:59;31.50;99.90
21823;DHT22;11074;48.596;9.238;2023-08-21T14:36:25;31.50;99.90
21823;DHT22;11074;48.596;9.238;2023-08-21T14:38:51;31.50;99.90
21823;DHT22;11074;48.596;9.238;2023-08-21T14:41:17;31.50;99.90
21823;DHT22;11074;48.596;9.238;2023-08-21T14:43:44;31.60;99.90
21823;DHT22;11074;48.596;9.238;2023-08-21T14:46:09;31.80;99.90
21823;DHT22;11074;48.596;9.238;2023-08-21T14:48:36;31.90;99.90
21823;DHT22;11074;48.596;9.238;2023-08-21T14:51:03;32.00;99.90
21823;DHT22;11074;48.596;9.238;2023-08-21T14:53:30;31.90;99.90
21823;DHT22;11074;48.596;9.238;2023-08-21T14:55:55;31.90;99.90
21823;DHT22;11074;48.596;9.238;2023-08-21T14:58:22;32.00;99.90
21823;DHT22;11074;48.596;9.238;2023-08-21T15:00:48;32.00;99.90
21823;DHT22;11074;48.596;9.238;2023-08-21T15:03:14;32.20;99.90
21823;DHT22;11074;48.596;9.238;2023-08-21T15:05:40;32.40;99.90
21823;DHT22;11074;48.596;9.238;2023-08-21T15:08:06;32.80;99.90
21823;DHT22;11074;48.596;9.238;2023-08-21T15:10:31;33.00;99.90
21823;DHT22;11074;48.596;9.238;2023-08-21T15:12:57;33.10;99.90
21823;DHT22;11074;48.596;9.238;2023-08-21T15:15:23;33.30;99.90
21823;DHT22;11074;48.596;9.238;2023-08-21T15:17:48;34.50;99.90
21823;DHT22;11074;48.596;9.238;2023-08-21T15:20:14;35.90;99.90
21823;DHT22;11074;48.596;9.238;2023-08-21T15:22:41;36.10;99.90
21823;DHT22;11074;48.596;9.238;2023-08-21T15:25:09;34.90;99.90
21823;DHT22;11074;48.596;9.238;2023-08-21T15:27:35;34.00;99.90
21823;DHT22;11074;48.596;9.238;2023-08-21T15:30:01;33.50;99.90
21823;DHT22;11074;48.596;9.238;2023-08-21T15:32:27;33.10;99.90
21823;DHT22;11074;48.596;9.238;2023-08-21T15:34:53;33.10;99.90
21823;DHT22;11074;48.596;9.238;2023-08-21T15:37:19;32.90;99.90
21823;DHT22;11074;48.596;9.238;2023-08-21T15:39:44;32.80;99.90
21823;DHT22;11074;48.596;9.238;2023-08-21T15:42:10;32.80;99.90
21823;DHT22;11074;48.596;9.238;2023-08-21T15:44:36;32.80;99.90
21823;DHT22;11074;48.596;9.238;2023-08-21T15:47:01;32.70;99.90
21823;DHT22;11074;48.596;9.238;2023-08-21T15:49:27;32.80;99.90
21823;DHT22;11074;48.596;9.238;2023-08-21T15:51:53;32.80;99.90
21823;DHT22;11074;48.596;9.238;2023-08-21T15:54:19;32.80;99.90